createdAt,value
2023-04-26T00:01:05.616Z,87.42
2023-04-26T00:03:33.098Z,87.65
2023-04-26T00:06:05.816Z,87.69
2023-04-26T00:08:32.200Z,87.18
2023-04-26T00:10:58.629Z,87.14
2023-04-26T00:13:25.105Z,87.74
2023-04-26T00:15:51.705Z,87.79
2023-04-26T00:18:18.204Z,87.45
2023-04-26T00:20:44.712Z,87.14
2023-04-26T00:23:11.120Z,87.50
2023-04-26T00:25:38.661Z,87.31
2023-04-26T00:28:05.047Z,87.83
2023-04-26T00:30:32.321Z,87.87
2023-04-26T00:32:58.720Z,88.07
2023-04-26T00:35:25.535Z,87.80
2023-04-26T00:37:52.157Z,88.28
2023-04-26T00:40:20.568Z,87.69
2023-04-26T00:42:46.949Z,87.67
2023-04-26T00:45:13.367Z,87.64
2023-04-26T00:47:40.715Z,87.42
2023-04-26T00:50:07.983Z,87.13
2023-04-26T00:52:34.407Z,87.86
2023-04-26T00:55:01.366Z,87.82
2023-04-26T00:57:27.762Z,87.46
2023-04-26T00:59:54.176Z,87.76
2023-04-26T01:02:20.944Z,87.26
2023-04-26T01:04:48.086Z,87.00
2023-04-26T01:07:14.492Z,87.73
2023-04-26T01:09:41.004Z,87.33
2023-04-26T01:12:08.989Z,87.42
2023-04-26T01:14:36.787Z,88.14
2023-04-26T01:17:03.824Z,88.38
2023-04-26T01:19:30.272Z,88.84
2023-04-26T01:21:56.624Z,89.30
2023-04-26T01:24:23.215Z,89.54
2023-04-26T01:26:49.737Z,89.36
2023-04-26T01:29:20.237Z,88.80
2023-04-26T01:31:48.047Z,88.56
2023-04-26T01:34:14.760Z,88.66
2023-04-26T01:36:41.635Z,89.36
2023-04-26T01:39:10.649Z,89.52
2023-04-26T01:41:37.138Z,89.55
2023-04-26T01:44:03.920Z,89.72
2023-04-26T01:46:30.331Z,89.77
2023-04-26T01:48:57.361Z,89.00
2023-04-26T01:51:23.912Z,89.36
2023-04-26T01:53:50.334Z,89.29
2023-04-26T01:56:17.214Z,89.17
2023-04-26T01:58:43.598Z,88.84
2023-04-26T02:01:10.242Z,89.15
2023-04-26T02:03:36.730Z,88.85
2023-04-26T02:06:03.795Z,88.87
2023-04-26T02:08:30.210Z,88.46
2023-04-26T02:10:56.968Z,87.98
2023-04-26T02:13:23.392Z,88.49
2023-04-26T02:15:51.306Z,88.24
2023-04-26T02:18:17.975Z,88.42
2023-04-26T02:20:45.713Z,88.90
2023-04-26T02:23:12.550Z,89.02
2023-04-26T02:25:39.362Z,88.63
2023-04-26T02:28:06.443Z,88.94
2023-04-26T02:30:32.999Z,88.61
2023-04-26T02:32:59.583Z,88.64
2023-04-26T02:35:26.660Z,88.60
2023-04-26T02:37:53.135Z,88.94
2023-04-26T02:40:19.860Z,89.08
2023-04-26T02:42:46.421Z,88.54
2023-04-26T02:45:12.992Z,88.70
2023-04-26T02:47:39.731Z,88.19
2023-04-26T02:50:10.622Z,88.82
2023-04-26T02:52:37.153Z,88.62
2023-04-26T02:55:04.507Z,89.09
2023-04-26T02:57:31.778Z,88.91
2023-04-26T02:59:58.761Z,88.93
2023-04-26T03:02:25.871Z,89.36
2023-04-26T03:04:52.673Z,88.99
2023-04-26T03:07:19.118Z,88.93
2023-04-26T03:09:45.682Z,88.93
2023-04-26T03:12:12.116Z,88.87
2023-04-26T03:14:39.062Z,88.88
2023-04-26T03:17:06.177Z,89.40
2023-04-26T03:19:32.747Z,88.93
2023-04-26T03:21:59.138Z,89.08
2023-04-26T03:24:25.569Z,89.28
2023-04-26T03:26:52.423Z,89.04
2023-04-26T03:29:18.762Z,89.45
2023-04-26T03:31:45.390Z,88.73
2023-04-26T03:34:11.764Z,88.46
2023-04-26T03:36:38.495Z,89.19
2023-04-26T03:39:06.127Z,89.12
2023-04-26T03:41:33.517Z,88.58
2023-04-26T03:43:59.990Z,89.26
2023-04-26T03:46:26.456Z,89.24
2023-04-26T03:48:53.107Z,88.64
2023-04-26T03:51:19.730Z,88.75
2023-04-26T03:53:48.601Z,88.50
2023-04-26T03:56:15.027Z,88.74
2023-04-26T03:58:42.073Z,88.95
2023-04-26T04:01:08.697Z,89.20
2023-04-26T04:03:36.237Z,88.63
2023-04-26T04:06:05.010Z,88.90
2023-04-26T04:08:31.924Z,88.47
2023-04-26T04:10:58.448Z,88.40
2023-04-26T04:13:24.870Z,88.88
2023-04-26T04:15:51.742Z,90.27
2023-04-26T04:18:18.192Z,90.50
2023-04-26T04:20:44.973Z,90.38
2023-04-26T04:23:11.449Z,90.16
2023-04-26T04:25:38.866Z,89.59
2023-04-26T04:28:05.285Z,89.69
2023-04-26T04:30:32.041Z,90.03
2023-04-26T04:33:01.459Z,90.14
2023-04-26T04:35:33.576Z,89.75
2023-04-26T04:38:00.410Z,89.52
2023-04-26T04:40:27.359Z,89.93
2023-04-26T04:42:54.801Z,90.29
2023-04-26T04:45:21.655Z,89.80
2023-04-26T04:47:48.400Z,89.92
2023-04-26T04:50:14.915Z,89.95
2023-04-26T04:52:42.502Z,90.00
2023-04-26T04:55:09.871Z,89.57
2023-04-26T04:57:36.255Z,90.71
2023-04-26T05:00:09.991Z,90.91
2023-04-26T05:02:37.372Z,91.16
2023-04-26T05:05:05.084Z,91.44
2023-04-26T05:07:32.444Z,91.45
2023-04-26T05:09:59.614Z,91.21
2023-04-26T05:12:26.119Z,91.41
2023-04-26T05:14:52.519Z,91.08
2023-04-26T05:17:18.911Z,91.16
2023-04-26T05:19:45.724Z,90.77
2023-04-26T05:22:17.973Z,92.37
2023-04-26T05:24:47.678Z,92.22
2023-04-26T05:27:14.547Z,91.94
2023-04-26T05:29:41.606Z,91.42
2023-04-26T05:32:08.305Z,92.18
2023-04-26T05:34:35.153Z,91.05
2023-04-26T05:37:01.489Z,90.67
2023-04-26T05:39:27.955Z,90.76
2023-04-26T05:41:54.428Z,90.89
2023-04-26T05:44:20.939Z,91.16
2023-04-26T05:46:47.500Z,91.33
2023-04-26T05:49:13.903Z,90.84
2023-04-26T05:51:40.657Z,90.68
2023-04-26T05:54:07.399Z,92.23
2023-04-26T05:56:33.823Z,92.57
2023-04-26T05:59:00.313Z,92.58
2023-04-26T06:01:27.624Z,92.39
2023-04-26T06:03:58.025Z,92.20
2023-04-26T06:06:28.204Z,92.08
2023-04-26T06:08:54.823Z,91.08
2023-04-26T06:11:21.282Z,89.60
2023-04-26T06:13:47.731Z,88.26
2023-04-26T06:16:14.156Z,87.71
2023-04-26T06:18:40.657Z,86.44
2023-04-26T06:21:07.961Z,86.19
2023-04-26T06:23:34.453Z,85.56
2023-04-26T06:26:00.875Z,85.71
2023-04-26T06:28:27.370Z,84.76
2023-04-26T06:30:53.808Z,85.17
2023-04-26T06:33:20.497Z,84.10
2023-04-26T06:35:46.986Z,82.75
2023-04-26T06:38:13.389Z,82.51
2023-04-26T06:40:39.800Z,82.23
2023-04-26T06:43:06.195Z,81.02
2023-04-26T06:45:32.605Z,80.61
2023-04-26T06:48:00.868Z,80.03
2023-04-26T06:50:27.596Z,79.47
2023-04-26T06:52:54.146Z,78.65
2023-04-26T06:55:21.036Z,77.55
2023-04-26T06:57:47.599Z,78.33
2023-04-26T07:00:14.613Z,76.91
2023-04-26T07:02:41.288Z,76.10
2023-04-26T07:05:08.748Z,75.59
2023-04-26T07:07:35.763Z,73.26
2023-04-26T07:10:03.447Z,73.08
2023-04-26T07:12:29.851Z,71.72
2023-04-26T07:14:57.407Z,71.79
2023-04-26T07:17:23.875Z,71.57
2023-04-26T07:19:50.242Z,70.66
2023-04-26T07:22:16.617Z,70.35
2023-04-26T07:24:43.011Z,69.71
2023-04-26T07:27:09.999Z,70.83
2023-04-26T07:29:36.425Z,67.93
2023-04-26T07:32:02.798Z,67.74
2023-04-26T07:34:29.285Z,67.46
2023-04-26T07:36:56.601Z,67.68
2023-04-26T07:39:23.275Z,66.82
2023-04-26T07:41:49.901Z,67.86
2023-04-26T07:44:16.257Z,67.51
2023-04-26T07:46:42.711Z,70.08
2023-04-26T07:49:09.127Z,69.51
2023-04-26T07:51:36.430Z,67.81
2023-04-26T07:54:02.856Z,62.87
2023-04-26T07:56:29.244Z,64.13
2023-04-26T07:58:56.203Z,64.43
2023-04-26T08:01:22.745Z,63.17
2023-04-26T08:03:49.496Z,61.00
2023-04-26T08:06:16.720Z,60.71
2023-04-26T08:08:45.564Z,61.76
2023-04-26T08:11:12.028Z,63.99
2023-04-26T08:13:38.575Z,63.86
2023-04-26T08:16:05.721Z,62.97
2023-04-26T08:18:32.096Z,62.53
2023-04-26T08:20:58.516Z,61.07
2023-04-26T08:23:24.924Z,60.61
2023-04-26T08:25:51.468Z,60.20
2023-04-26T08:28:17.889Z,60.16
2023-04-26T08:30:44.347Z,59.82
2023-04-26T08:33:11.043Z,59.00
2023-04-26T08:35:37.510Z,58.83
2023-04-26T08:38:04.044Z,57.44
2023-04-26T08:40:31.722Z,57.60
2023-04-26T08:42:58.125Z,57.60
2023-04-26T08:45:24.954Z,56.86
2023-04-26T08:47:56.996Z,57.69
2023-04-26T08:50:24.229Z,57.53
2023-04-26T08:52:52.284Z,54.78
2023-04-26T08:55:20.395Z,54.70
2023-04-26T08:57:48.309Z,55.35
2023-04-26T09:00:16.424Z,55.73
2023-04-26T09:02:51.206Z,54.22
2023-04-26T09:05:23.516Z,56.09
2023-04-26T09:07:51.222Z,55.19
2023-04-26T09:10:22.157Z,53.84
2023-04-26T09:12:55.938Z,56.30
2023-04-26T09:15:24.193Z,55.69
2023-04-26T09:17:51.819Z,54.91
2023-04-26T09:20:25.834Z,52.57
2023-04-26T09:23:03.522Z,54.29
2023-04-26T09:25:31.178Z,54.91
2023-04-26T09:27:58.631Z,54.74
2023-04-26T09:30:26.416Z,53.78
2023-04-26T09:33:03.822Z,55.51
2023-04-26T09:35:34.766Z,54.01
2023-04-26T09:38:11.115Z,52.20
2023-04-26T09:40:44.421Z,51.88
2023-04-26T09:43:18.909Z,52.74
2023-04-26T09:45:57.101Z,50.82
2023-04-26T09:48:26.559Z,49.22
2023-04-26T09:50:58.664Z,49.80
2023-04-26T09:53:48.269Z,48.42
2023-04-26T09:56:21.966Z,49.02
2023-04-26T09:58:52.392Z,52.40
2023-04-26T10:01:19.889Z,50.67
2023-04-26T10:03:47.342Z,50.30
2023-04-26T10:06:14.263Z,50.37
2023-04-26T10:08:41.152Z,51.27
2023-04-26T10:11:09.685Z,51.28
2023-04-26T10:13:36.203Z,50.80
2023-04-26T10:16:03.430Z,49.05
2023-04-26T10:18:33.553Z,47.46
2023-04-26T10:21:05.472Z,47.76
2023-04-26T10:23:33.205Z,44.71
2023-04-26T10:25:59.641Z,45.25
2023-04-26T10:28:44.397Z,42.91
2023-04-26T10:31:11.350Z,43.13
2023-04-26T10:33:38.169Z,45.85
2023-04-26T10:36:08.605Z,47.40
2023-04-26T10:38:37.183Z,44.31
2023-04-26T10:41:32.405Z,45.17
2023-04-26T10:44:01.478Z,46.51
2023-04-26T10:46:36.712Z,44.99
2023-04-26T10:49:17.359Z,47.97
2023-04-26T10:52:10.285Z,48.32
2023-04-26T10:54:47.491Z,47.98
2023-04-26T10:57:14.510Z,46.47
2023-04-26T10:59:53.906Z,45.64
2023-04-26T11:02:53.381Z,45.59
2023-04-26T11:05:50.721Z,45.48
2023-04-26T11:08:24.829Z,42.07
2023-04-26T11:10:56.493Z,42.27
2023-04-26T11:13:23.112Z,42.83
2023-04-26T11:15:55.041Z,42.33
2023-04-26T11:18:22.201Z,43.93
2023-04-26T11:20:48.629Z,43.74
2023-04-26T11:23:15.513Z,44.88
2023-04-26T11:25:42.014Z,44.26
2023-04-26T11:28:08.411Z,43.86
2023-04-26T11:30:34.849Z,42.89
2023-04-26T11:33:04.174Z,42.95
2023-04-26T11:35:34.853Z,44.32
2023-04-26T11:38:05.347Z,44.00
2023-04-26T11:40:33.404Z,43.29
2023-04-26T11:43:01.558Z,43.83
2023-04-26T11:45:28.438Z,42.99
2023-04-26T11:47:55.452Z,44.35
2023-04-26T11:50:26.610Z,45.74
2023-04-26T11:52:57.053Z,45.30
2023-04-26T11:55:33.100Z,44.19
2023-04-26T11:58:00.285Z,44.52
2023-04-26T12:00:27.297Z,42.89
2023-04-26T12:02:54.193Z,44.66
2023-04-26T12:05:24.655Z,44.73
2023-04-26T12:07:56.599Z,43.35
2023-04-26T12:10:27.781Z,43.47
2023-04-26T12:12:58.547Z,45.21
2023-04-26T12:15:29.228Z,46.13
2023-04-26T12:18:08.748Z,46.34
2023-04-26T12:20:39.866Z,45.72
2023-04-26T12:23:13.038Z,43.02
2023-04-26T12:25:41.149Z,42.07
2023-04-26T12:28:13.748Z,41.10
2023-04-26T12:30:40.991Z,40.25
2023-04-26T12:33:16.272Z,41.80
2023-04-26T12:35:43.290Z,43.78
2023-04-26T12:38:09.769Z,42.46
2023-04-26T12:40:37.419Z,41.25
2023-04-26T12:43:03.930Z,39.66
2023-04-26T12:45:30.405Z,39.00
2023-04-26T12:47:56.889Z,38.94
2023-04-26T12:50:23.542Z,38.94
2023-04-26T12:52:50.314Z,39.42
2023-04-26T12:55:16.988Z,39.69
2023-04-26T12:57:44.897Z,38.05
2023-04-26T13:00:21.430Z,37.28
2023-04-26T13:02:47.963Z,36.68
2023-04-26T13:05:14.514Z,36.21
2023-04-26T13:07:43.252Z,36.54
2023-04-26T13:10:13.002Z,36.30
2023-04-26T13:12:40.299Z,36.37
2023-04-26T13:15:08.361Z,35.71
2023-04-26T13:17:38.279Z,35.49
2023-04-26T13:20:06.331Z,37.77
2023-04-26T13:22:33.431Z,37.98
2023-04-26T13:24:59.865Z,35.42
2023-04-26T13:27:28.390Z,36.70
2023-04-26T13:29:57.136Z,35.39
2023-04-26T13:32:23.613Z,35.76
2023-04-26T13:34:50.099Z,36.62
2023-04-26T13:37:17.690Z,38.29
2023-04-26T13:39:44.150Z,38.95
2023-04-26T13:42:11.093Z,38.41
2023-04-26T13:44:37.433Z,39.87
2023-04-26T13:47:03.888Z,39.04
2023-04-26T13:49:30.260Z,40.26
2023-04-26T13:51:57.784Z,39.54
2023-04-26T13:54:25.961Z,39.47
2023-04-26T13:56:53.494Z,39.06
2023-04-26T13:59:20.437Z,36.74
2023-04-26T14:01:46.969Z,39.44
2023-04-26T14:04:13.718Z,37.69
2023-04-26T14:06:40.640Z,38.06
2023-04-26T14:09:07.035Z,38.34
2023-04-26T14:11:33.413Z,37.04
2023-04-26T14:13:59.850Z,38.27
2023-04-26T14:16:26.939Z,38.45
2023-04-26T14:18:53.432Z,36.23
2023-04-26T14:21:20.040Z,38.46
2023-04-26T14:23:46.488Z,35.62
2023-04-26T14:26:13.794Z,38.06
2023-04-26T14:28:41.057Z,38.66
2023-04-26T14:31:08.227Z,39.33
2023-04-26T14:33:35.062Z,39.99
2023-04-26T14:36:01.466Z,39.24
2023-04-26T14:38:27.836Z,38.82
2023-04-26T14:40:54.268Z,37.85
2023-04-26T14:43:20.635Z,39.53
2023-04-26T14:45:47.167Z,40.84
2023-04-26T14:48:13.653Z,40.08
2023-04-26T14:50:40.086Z,40.37
2023-04-26T14:53:06.734Z,40.84
2023-04-26T14:55:33.161Z,40.17
2023-04-26T14:57:59.509Z,41.00
2023-04-26T15:00:25.951Z,39.66
2023-04-26T15:02:52.426Z,39.73
2023-04-26T15:05:19.102Z,39.02
2023-04-26T15:07:45.567Z,40.64
2023-04-26T15:10:11.982Z,41.61
2023-04-26T15:12:38.415Z,40.46
2023-04-26T15:15:05.230Z,40.00
2023-04-26T15:17:32.714Z,38.25
2023-04-26T15:19:59.267Z,40.19
2023-04-26T15:22:26.401Z,37.94
2023-04-26T15:24:52.905Z,38.84
2023-04-26T15:27:19.303Z,37.93
2023-04-26T15:29:46.423Z,39.87
2023-04-26T15:32:13.061Z,39.17
2023-04-26T15:34:43.404Z,39.44
2023-04-26T15:37:10.436Z,39.66
2023-04-26T15:39:37.404Z,38.75
2023-04-26T15:42:08.095Z,38.53
2023-04-26T15:44:34.531Z,38.74
2023-04-26T15:47:01.614Z,40.70
2023-04-26T15:49:28.623Z,40.45
2023-04-26T15:51:55.442Z,41.92
2023-04-26T15:54:22.180Z,41.44
2023-04-26T15:56:48.710Z,39.58
2023-04-26T15:59:15.243Z,41.43
2023-04-26T16:01:41.662Z,41.88
2023-04-26T16:04:08.813Z,42.01
2023-04-26T16:06:35.995Z,41.93
2023-04-26T16:09:20.883Z,41.53
2023-04-26T16:11:50.970Z,42.05
2023-04-26T16:14:17.595Z,42.27
2023-04-26T16:16:45.821Z,43.61
2023-04-26T16:19:12.363Z,43.87
2023-04-26T16:21:40.076Z,42.93
2023-04-26T16:24:09.032Z,42.54
2023-04-26T16:26:35.906Z,42.46
2023-04-26T16:29:03.801Z,41.63
2023-04-26T16:31:31.843Z,41.54
2023-04-26T16:33:58.707Z,41.75
2023-04-26T16:36:25.243Z,42.07
2023-04-26T16:38:51.847Z,43.09
2023-04-26T16:41:18.209Z,43.03
2023-04-26T16:43:44.715Z,43.53
2023-04-26T16:46:11.569Z,43.08
2023-04-26T16:48:38.883Z,41.93
2023-04-26T16:51:07.638Z,43.14
2023-04-26T16:53:35.126Z,43.32
2023-04-26T16:56:01.589Z,42.69
2023-04-26T16:58:28.093Z,43.15
2023-04-26T17:00:54.732Z,44.00
2023-04-26T17:03:21.534Z,44.83
2023-04-26T17:05:48.495Z,45.75
2023-04-26T17:08:16.574Z,45.10
2023-04-26T17:10:43.960Z,45.07
2023-04-26T17:13:12.553Z,45.31
2023-04-26T17:15:40.933Z,46.14
2023-04-26T17:18:08.395Z,44.94
2023-04-26T17:20:35.498Z,46.46
2023-04-26T17:23:03.937Z,47.91
2023-04-26T17:25:30.403Z,47.25
2023-04-26T17:27:56.734Z,46.89
2023-04-26T17:30:23.496Z,46.24
2023-04-26T17:32:49.935Z,45.80
2023-04-26T17:35:16.553Z,47.52
2023-04-26T17:37:43.033Z,48.11
2023-04-26T17:40:09.922Z,47.81
2023-04-26T17:42:36.397Z,48.46
2023-04-26T17:45:05.017Z,48.56
2023-04-26T17:47:31.535Z,48.89
2023-04-26T17:49:58.570Z,49.60
2023-04-26T17:52:25.178Z,51.47
2023-04-26T17:54:51.596Z,50.39
2023-04-26T17:57:20.096Z,49.35
2023-04-26T17:59:46.622Z,48.82
2023-04-26T18:02:13.205Z,49.95
2023-04-26T18:04:40.085Z,49.58
2023-04-26T18:07:07.565Z,50.48
2023-04-26T18:09:33.956Z,48.87
2023-04-26T18:12:00.361Z,49.57
2023-04-26T18:14:27.862Z,49.73
2023-04-26T18:16:54.556Z,50.74
2023-04-26T18:19:21.045Z,51.51
2023-04-26T18:21:50.941Z,50.92
2023-04-26T18:24:17.384Z,51.46
2023-04-26T18:26:43.836Z,53.24
2023-04-26T18:29:10.380Z,52.62
2023-04-26T18:31:36.944Z,52.29
2023-04-26T18:34:03.478Z,51.97
2023-04-26T18:36:31.816Z,53.67
2023-04-26T18:38:59.821Z,54.05
2023-04-26T18:41:27.325Z,53.29
2023-04-26T18:43:53.816Z,54.50
2023-04-26T18:46:20.225Z,54.60
2023-04-26T18:48:47.376Z,54.61
2023-04-26T18:51:13.739Z,54.98
2023-04-26T18:53:40.324Z,55.56
2023-04-26T18:56:06.903Z,56.79
2023-04-26T18:58:33.333Z,58.11
2023-04-26T19:00:59.716Z,57.14
2023-04-26T19:03:26.729Z,57.73
2023-04-26T19:05:53.482Z,57.90
2023-04-26T19:08:19.879Z,57.76
2023-04-26T19:10:46.286Z,57.50
2023-04-26T19:13:12.632Z,58.86
2023-04-26T19:15:39.026Z,59.84
2023-04-26T19:18:05.544Z,59.47
2023-04-26T19:20:31.922Z,60.48
2023-04-26T19:22:58.383Z,61.65
2023-04-26T19:25:25.419Z,61.83
2023-04-26T19:27:52.245Z,64.05
2023-04-26T19:30:18.636Z,65.02
2023-04-26T19:32:45.094Z,64.28
2023-04-26T19:35:11.569Z,65.52
2023-04-26T19:37:37.938Z,65.35
2023-04-26T19:40:07.556Z,66.41
2023-04-26T19:42:33.961Z,65.87
2023-04-26T19:45:00.517Z,67.96
2023-04-26T19:47:27.056Z,68.21
2023-04-26T19:49:55.438Z,68.07
2023-04-26T19:52:21.864Z,68.78
2023-04-26T19:54:48.197Z,69.25
2023-04-26T19:57:15.285Z,69.54
2023-04-26T19:59:41.617Z,70.05
2023-04-26T20:02:08.016Z,69.30
2023-04-26T20:04:34.449Z,69.20
2023-04-26T20:07:01.201Z,70.47
2023-04-26T20:09:27.621Z,70.99
2023-04-26T20:11:54.037Z,70.55
2023-04-26T20:14:20.444Z,69.60
2023-04-26T20:16:47.367Z,69.57
2023-04-26T20:19:14.519Z,68.79
2023-04-26T20:21:40.901Z,69.39
2023-04-26T20:24:07.662Z,70.62
2023-04-26T20:26:34.066Z,70.89
2023-04-26T20:29:00.428Z,70.49
2023-04-26T20:31:26.934Z,70.87
2023-04-26T20:33:53.588Z,71.47
2023-04-26T20:36:20.643Z,71.35
2023-04-26T20:38:47.319Z,70.73
2023-04-26T20:41:13.866Z,70.41
2023-04-26T20:43:40.360Z,71.14
2023-04-26T20:46:06.920Z,70.36
2023-04-26T20:48:33.379Z,70.67
2023-04-26T20:51:01.778Z,71.27
2023-04-26T20:53:28.131Z,70.15
2023-04-26T20:55:54.632Z,70.74
2023-04-26T20:58:21.014Z,70.21
2023-04-26T21:00:55.111Z,69.30
2023-04-26T21:03:22.007Z,70.98
2023-04-26T21:05:48.599Z,70.18
2023-04-26T21:08:15.118Z,71.30
2023-04-26T21:10:41.444Z,71.62
2023-04-26T21:13:08.046Z,72.74
2023-04-26T21:15:34.559Z,72.78
2023-04-26T21:18:01.030Z,73.59
2023-04-26T21:20:27.395Z,73.27
2023-04-26T21:22:53.844Z,73.85
2023-04-26T21:25:20.674Z,74.69
2023-04-26T21:27:47.087Z,73.83
2023-04-26T21:30:13.815Z,73.97
2023-04-26T21:32:41.236Z,73.93
2023-04-26T21:35:08.158Z,73.57
2023-04-26T21:37:34.585Z,73.53
2023-04-26T21:40:01.824Z,75.12
2023-04-26T21:42:28.219Z,75.91
2023-04-26T21:44:54.575Z,76.53
2023-04-26T21:47:21.016Z,77.77
2023-04-26T21:49:47.378Z,76.81
2023-04-26T21:52:13.752Z,77.48
2023-04-26T21:54:40.344Z,77.18
2023-04-26T21:57:06.972Z,77.68
2023-04-26T21:59:33.797Z,78.14
2023-04-26T22:02:00.294Z,78.64
2023-04-26T22:04:26.907Z,79.14
2023-04-26T22:06:53.373Z,79.47
2023-04-26T22:09:20.948Z,78.16
2023-04-26T22:11:47.354Z,79.66
2023-04-26T22:14:14.028Z,79.90
2023-04-26T22:16:40.443Z,79.86
2023-04-26T22:19:06.979Z,80.04
2023-04-26T22:21:33.414Z,80.06
2023-04-26T22:24:00.185Z,80.37
2023-04-26T22:26:26.750Z,80.67
2023-04-26T22:28:53.124Z,80.45
2023-04-26T22:31:19.614Z,80.26
2023-04-26T22:33:46.245Z,79.25
2023-04-26T22:36:13.059Z,78.97
2023-04-26T22:38:39.751Z,80.58
2023-04-26T22:41:07.159Z,81.92
2023-04-26T22:43:34.258Z,82.37
2023-04-26T22:46:00.656Z,82.67
2023-04-26T22:48:27.203Z,82.70
2023-04-26T22:50:53.714Z,82.49
2023-04-26T22:53:21.487Z,82.81
2023-04-26T22:55:47.863Z,83.70
2023-04-26T22:58:14.538Z,83.83
2023-04-26T23:00:41.079Z,84.45
2023-04-26T23:03:07.541Z,84.85
2023-04-26T23:05:34.084Z,84.58
2023-04-26T23:08:00.461Z,84.83
2023-04-26T23:10:27.255Z,84.81
2023-04-26T23:12:55.128Z,84.83
2023-04-26T23:15:21.625Z,84.81
2023-04-26T23:17:48.525Z,85.29
2023-04-26T23:20:15.639Z,85.64
2023-04-26T23:22:42.942Z,86.06
2023-04-26T23:25:10.109Z,85.94
2023-04-26T23:27:37.586Z,85.89
2023-04-26T23:30:04.940Z,85.88
2023-04-26T23:32:31.474Z,86.24
2023-04-26T23:34:57.852Z,86.52
2023-04-26T23:37:24.230Z,86.42
2023-04-26T23:39:50.995Z,86.53
2023-04-26T23:42:17.484Z,86.66
2023-04-26T23:44:43.861Z,87.39
2023-04-26T23:47:10.332Z,86.52
2023-04-26T23:49:36.726Z,87.22
2023-04-26T23:52:03.109Z,87.61
2023-04-26T23:54:29.549Z,88.26
2023-04-26T23:56:56.017Z,87.89
2023-04-26T23:59:23.206Z,87.57
